SBI1021 UNNT-UIUU
Flight info
| Callsign | SBI1021 |
|---|---|
| Flight time | 2h 22m |
| Altitude | 35000 |
| Route | OGATI A308 RISPA A822 LAPAK B151 RO A817 SUKOR A91 KA A806 OSTUN |
| Aircraft | A321/M-S/L |
Departure
| Time | 2026-04-26 09:43 |
|---|---|
| Airport | Novosibirsk Tolmachevo Airport (UNNT) |
Arrival
| Time | 2026-04-26 12:06 |
|---|---|
| Airport | Baikal International Airport (UIUU) |
| Time | Latitude | Longitude | Altitude | Speed | Heading |
|---|---|---|---|---|---|
| 2026-04-26 09:34 | 55.00985 | 82.65846 | 355 ft | 0 kts | 171° |
| 2026-04-26 09:37 | 55.00971 | 82.65849 | 355 ft | 4 kts | 175° |
| 2026-04-26 09:37 | 55.00933 | 82.65799 | 356 ft | 11 kts | 258° |
| 2026-04-26 09:37 | 55.00920 | 82.65643 | 355 ft | 4 kts | 264° |
| 2026-04-26 09:37 | 55.00920 | 82.65640 | 355 ft | 0 kts | 264° |
| 2026-04-26 09:38 | 55.00919 | 82.65632 | 355 ft | 2 kts | 262° |
| 2026-04-26 09:38 | 55.00912 | 82.65558 | 355 ft | 9 kts | 261° |
| 2026-04-26 09:38 | 55.00894 | 82.65404 | 354 ft | 16 kts | 258° |
| 2026-04-26 09:39 | 55.00882 | 82.65189 | 352 ft | 19 kts | 266° |
| 2026-04-26 09:39 | 55.00879 | 82.64947 | 352 ft | 20 kts | 282° |
| 2026-04-26 09:39 | 55.00910 | 82.64694 | 352 ft | 22 kts | 282° |
| 2026-04-26 09:39 | 55.00947 | 82.64432 | 352 ft | 23 kts | 281° |
| 2026-04-26 09:40 | 55.00948 | 82.64160 | 352 ft | 22 kts | 265° |
| 2026-04-26 09:40 | 55.00927 | 82.63893 | 352 ft | 22 kts | 262° |
| 2026-04-26 09:40 | 55.00902 | 82.63620 | 352 ft | 23 kts | 259° |
| 2026-04-26 09:40 | 55.00874 | 82.63335 | 352 ft | 24 kts | 263° |
| 2026-04-26 09:41 | 55.00848 | 82.63039 | 352 ft | 25 kts | 260° |
| 2026-04-26 09:41 | 55.00823 | 82.62735 | 352 ft | 25 kts | 260° |
| 2026-04-26 09:41 | 55.00875 | 82.62461 | 352 ft | 21 kts | 307° |
| 2026-04-26 09:41 | 55.00961 | 82.62345 | 352 ft | 12 kts | 4° |
| 2026-04-26 09:42 | 55.01000 | 82.62412 | 352 ft | 0 kts | 72° |
| 2026-04-26 09:42 | 55.01002 | 82.62425 | 352 ft | 3 kts | 72° |
| 2026-04-26 09:42 | 55.01028 | 82.62663 | 352 ft | 48 kts | 81° |
| 2026-04-26 09:42 | 55.01103 | 82.63655 | 351 ft | 115 kts | 80° |
| 2026-04-26 09:43 | 55.01276 | 82.65361 | 353 ft | 171 kts | 85° |
| 2026-04-26 09:43 | 55.01481 | 82.67570 | 667 ft | 193 kts | 85° |
| 2026-04-26 09:43 | 55.01724 | 82.69869 | 1350 ft | 192 kts | 87° |
| 2026-04-26 09:43 | 55.01953 | 82.72179 | 1660 ft | 203 kts | 89° |
| 2026-04-26 09:44 | 55.02181 | 82.74674 | 1928 ft | 216 kts | 89° |
| 2026-04-26 09:44 | 55.02420 | 82.77351 | 2164 ft | 233 kts | 88° |
| 2026-04-26 09:44 | 55.02683 | 82.80276 | 2429 ft | 251 kts | 87° |
| 2026-04-26 09:44 | 55.02964 | 82.83301 | 2919 ft | 258 kts | 87° |
| 2026-04-26 09:45 | 55.03174 | 82.86392 | 3529 ft | 258 kts | 95° |
| 2026-04-26 09:45 | 55.02838 | 82.89376 | 4027 ft | 253 kts | 122° |
| 2026-04-26 09:45 | 55.01757 | 82.91711 | 4484 ft | 251 kts | 143° |
| 2026-04-26 09:45 | 55.00422 | 82.93668 | 5039 ft | 257 kts | 143° |
| 2026-04-26 09:46 | 54.99090 | 82.95813 | 5642 ft | 263 kts | 140° |
| 2026-04-26 09:46 | 54.97831 | 82.98114 | 6230 ft | 268 kts | 136° |
| 2026-04-26 09:46 | 54.96597 | 83.00557 | 6818 ft | 273 kts | 135° |
| 2026-04-26 09:46 | 54.95360 | 83.03106 | 7412 ft | 276 kts | 135° |
| 2026-04-26 09:47 | 54.94136 | 83.05672 | 8007 ft | 279 kts | 134° |
| 2026-04-26 09:47 | 54.93084 | 83.08540 | 8564 ft | 290 kts | 117° |
| 2026-04-26 09:47 | 54.92601 | 83.11949 | 9138 ft | 300 kts | 100° |
| 2026-04-26 09:47 | 54.92445 | 83.15571 | 9677 ft | 304 kts | 98° |
| 2026-04-26 09:48 | 54.92332 | 83.19249 | 10206 ft | 309 kts | 97° |
| 2026-04-26 09:48 | 54.92210 | 83.23056 | 10490 ft | 322 kts | 97° |
| 2026-04-26 09:48 | 54.92069 | 83.27027 | 10744 ft | 336 kts | 97° |
| 2026-04-26 09:48 | 54.91915 | 83.31148 | 10993 ft | 349 kts | 97° |
| 2026-04-26 09:49 | 54.91748 | 83.35413 | 11272 ft | 361 kts | 97° |
| 2026-04-26 09:49 | 54.91574 | 83.39795 | 11728 ft | 366 kts | 97° |
| 2026-04-26 09:49 | 54.91398 | 83.44192 | 12269 ft | 368 kts | 97° |
| 2026-04-26 09:49 | 54.91220 | 83.48575 | 12781 ft | 370 kts | 97° |
| 2026-04-26 09:50 | 54.91036 | 83.53040 | 13283 ft | 373 kts | 97° |
| 2026-04-26 09:50 | 54.90848 | 83.57567 | 13773 ft | 376 kts | 97° |
| 2026-04-26 09:50 | 54.90659 | 83.62036 | 14235 ft | 379 kts | 97° |
| 2026-04-26 09:50 | 54.90463 | 83.66653 | 14728 ft | 381 kts | 97° |
| 2026-04-26 09:51 | 54.90292 | 83.70651 | 15148 ft | 383 kts | 97° |
| 2026-04-26 09:51 | 54.90110 | 83.74859 | 15575 ft | 385 kts | 97° |
| 2026-04-26 09:51 | 54.89905 | 83.79548 | 16042 ft | 388 kts | 97° |
| 2026-04-26 09:51 | 54.89688 | 83.84164 | 16494 ft | 390 kts | 97° |
| 2026-04-26 09:52 | 54.89466 | 83.88874 | 16935 ft | 393 kts | 97° |
| 2026-04-26 09:52 | 54.89026 | 83.98325 | 17825 ft | 397 kts | 97° |
| 2026-04-26 09:52 | 54.88806 | 84.03104 | 18249 ft | 399 kts | 97° |
| 2026-04-26 09:53 | 54.88585 | 84.07916 | 18638 ft | 402 kts | 96° |
| 2026-04-26 09:53 | 54.88363 | 84.12708 | 19028 ft | 404 kts | 96° |
| 2026-04-26 09:53 | 54.88137 | 84.17569 | 19417 ft | 407 kts | 96° |
| 2026-04-26 09:53 | 54.87904 | 84.22488 | 19803 ft | 409 kts | 96° |
| 2026-04-26 09:54 | 54.87670 | 84.27410 | 20193 ft | 411 kts | 96° |
| 2026-04-26 09:54 | 54.87434 | 84.32317 | 20555 ft | 414 kts | 96° |
| 2026-04-26 09:54 | 54.87194 | 84.37292 | 20925 ft | 416 kts | 96° |
| 2026-04-26 09:54 | 54.86951 | 84.42299 | 21303 ft | 418 kts | 96° |
| 2026-04-26 09:55 | 54.86704 | 84.47334 | 21650 ft | 420 kts | 96° |
| 2026-04-26 09:55 | 54.86454 | 84.52387 | 21992 ft | 423 kts | 96° |
| 2026-04-26 09:55 | 54.86203 | 84.57409 | 22347 ft | 425 kts | 96° |
| 2026-04-26 09:55 | 54.85945 | 84.62522 | 22684 ft | 427 kts | 96° |
| 2026-04-26 09:56 | 54.85683 | 84.67657 | 23007 ft | 430 kts | 96° |
| 2026-04-26 09:56 | 54.85416 | 84.72849 | 23356 ft | 431 kts | 96° |
| 2026-04-26 09:56 | 54.85149 | 84.77997 | 23696 ft | 433 kts | 96° |
| 2026-04-26 09:56 | 54.84880 | 84.83174 | 24018 ft | 434 kts | 96° |
| 2026-04-26 09:57 | 54.84607 | 84.88390 | 24338 ft | 436 kts | 96° |
| 2026-04-26 09:57 | 54.84329 | 84.93628 | 24613 ft | 439 kts | 96° |
| 2026-04-26 09:57 | 54.84049 | 84.98845 | 24900 ft | 441 kts | 96° |
| 2026-04-26 09:57 | 54.83762 | 85.04172 | 25177 ft | 444 kts | 96° |
| 2026-04-26 09:58 | 54.83473 | 85.09486 | 25463 ft | 445 kts | 96° |
| 2026-04-26 09:58 | 54.83178 | 85.14846 | 25752 ft | 447 kts | 96° |
| 2026-04-26 09:58 | 54.82883 | 85.20170 | 26023 ft | 449 kts | 96° |
| 2026-04-26 09:58 | 54.82699 | 85.25538 | 26282 ft | 451 kts | 89° |
| 2026-04-26 09:59 | 54.82985 | 85.30957 | 26530 ft | 453 kts | 79° |
| 2026-04-26 09:59 | 54.83774 | 85.36209 | 26780 ft | 453 kts | 70° |
| 2026-04-26 09:59 | 54.84861 | 85.41312 | 27036 ft | 455 kts | 67° |
| 2026-04-26 09:59 | 54.86017 | 85.46426 | 27260 ft | 457 kts | 67° |
| 2026-04-26 10:00 | 54.87175 | 85.51542 | 27508 ft | 459 kts | 67° |
| 2026-04-26 10:00 | 54.88336 | 85.56731 | 27745 ft | 461 kts | 67° |
| 2026-04-26 10:00 | 54.89485 | 85.61930 | 27989 ft | 462 kts | 67° |
| 2026-04-26 10:00 | 54.90617 | 85.67103 | 28222 ft | 464 kts | 68° |
| 2026-04-26 10:01 | 54.91748 | 85.72313 | 28424 ft | 466 kts | 68° |
| 2026-04-26 10:01 | 54.92887 | 85.77580 | 28626 ft | 468 kts | 68° |
| 2026-04-26 10:01 | 54.94030 | 85.82874 | 28833 ft | 470 kts | 68° |
| 2026-04-26 10:01 | 54.95184 | 85.88229 | 29083 ft | 470 kts | 68° |
| 2026-04-26 10:02 | 54.96310 | 85.93476 | 29401 ft | 469 kts | 68° |
| 2026-04-26 10:02 | 54.97440 | 85.98817 | 29703 ft | 469 kts | 69° |
| 2026-04-26 10:02 | 54.98430 | 86.04188 | 29953 ft | 470 kts | 72° |
| 2026-04-26 10:02 | 54.99366 | 86.09656 | 30204 ft | 470 kts | 72° |
| 2026-04-26 10:03 | 55.00275 | 86.15080 | 30469 ft | 470 kts | 72° |
| 2026-04-26 10:03 | 55.01189 | 86.20549 | 30746 ft | 469 kts | 72° |
| 2026-04-26 10:03 | 55.02087 | 86.25924 | 31003 ft | 469 kts | 72° |
| 2026-04-26 10:03 | 55.03001 | 86.31400 | 31272 ft | 468 kts | 72° |
| 2026-04-26 10:04 | 55.03899 | 86.36786 | 31536 ft | 467 kts | 71° |
| 2026-04-26 10:04 | 55.04804 | 86.42218 | 31801 ft | 466 kts | 71° |
| 2026-04-26 10:04 | 55.05694 | 86.47576 | 32057 ft | 465 kts | 71° |
| 2026-04-26 10:04 | 55.06594 | 86.53005 | 32299 ft | 465 kts | 71° |
| 2026-04-26 10:05 | 55.07481 | 86.58378 | 32528 ft | 465 kts | 71° |
| 2026-04-26 10:05 | 55.08367 | 86.63756 | 32767 ft | 464 kts | 71° |
| 2026-04-26 10:05 | 55.09255 | 86.69160 | 32985 ft | 464 kts | 72° |
| 2026-04-26 10:05 | 55.10131 | 86.74537 | 33190 ft | 464 kts | 72° |
| 2026-04-26 10:06 | 55.11028 | 86.79973 | 33362 ft | 464 kts | 71° |
| 2026-04-26 10:06 | 55.11923 | 86.85388 | 33528 ft | 465 kts | 71° |
| 2026-04-26 10:06 | 55.12802 | 86.90741 | 33705 ft | 465 kts | 72° |
| 2026-04-26 10:06 | 55.13685 | 86.96160 | 33891 ft | 465 kts | 71° |
| 2026-04-26 10:07 | 55.14561 | 87.01579 | 34071 ft | 465 kts | 71° |
| 2026-04-26 10:07 | 55.15435 | 87.07013 | 34222 ft | 466 kts | 72° |
| 2026-04-26 10:07 | 55.16300 | 87.12414 | 34371 ft | 466 kts | 71° |
| 2026-04-26 10:07 | 55.17170 | 87.17863 | 34507 ft | 467 kts | 71° |
| 2026-04-26 10:08 | 55.18035 | 87.23299 | 34659 ft | 467 kts | 71° |
| 2026-04-26 10:08 | 55.18900 | 87.28759 | 34812 ft | 467 kts | 71° |
| 2026-04-26 10:08 | 55.19767 | 87.34241 | 34926 ft | 468 kts | 71° |
| 2026-04-26 10:08 | 55.20629 | 87.39719 | 35004 ft | 469 kts | 71° |
| 2026-04-26 10:09 | 55.22339 | 87.50622 | 35026 ft | 468 kts | 71° |
| 2026-04-26 10:09 | 55.24041 | 87.61564 | 35031 ft | 468 kts | 71° |
| 2026-04-26 10:10 | 55.25742 | 87.72578 | 35048 ft | 468 kts | 72° |
| 2026-04-26 10:10 | 55.27423 | 87.83545 | 35055 ft | 468 kts | 72° |
| 2026-04-26 10:11 | 55.29099 | 87.94534 | 35056 ft | 468 kts | 72° |
| 2026-04-26 10:11 | 55.30757 | 88.05478 | 35052 ft | 468 kts | 72° |
| 2026-04-26 10:12 | 55.32420 | 88.16525 | 35062 ft | 467 kts | 72° |
| 2026-04-26 10:12 | 55.34055 | 88.27463 | 35051 ft | 466 kts | 72° |
| 2026-04-26 10:13 | 55.35682 | 88.38429 | 35064 ft | 465 kts | 72° |
| 2026-04-26 10:13 | 55.37296 | 88.49381 | 35067 ft | 465 kts | 72° |
| 2026-04-26 10:14 | 55.38900 | 88.60332 | 35067 ft | 465 kts | 72° |
| 2026-04-26 10:14 | 55.40503 | 88.71368 | 35067 ft | 466 kts | 73° |
| 2026-04-26 10:15 | 55.42081 | 88.82338 | 35066 ft | 466 kts | 73° |
| 2026-04-26 10:15 | 55.43319 | 88.93500 | 35062 ft | 468 kts | 80° |
| 2026-04-26 10:16 | 55.43927 | 89.04830 | 35051 ft | 468 kts | 83° |
| 2026-04-26 10:16 | 55.44430 | 89.16220 | 35050 ft | 468 kts | 83° |
| 2026-04-26 10:17 | 55.44934 | 89.27641 | 35053 ft | 468 kts | 83° |
| 2026-04-26 10:17 | 55.45431 | 89.38992 | 35062 ft | 468 kts | 83° |
| 2026-04-26 10:18 | 55.45919 | 89.50345 | 35064 ft | 468 kts | 83° |
| 2026-04-26 10:18 | 55.46399 | 89.61755 | 35067 ft | 468 kts | 83° |
| 2026-04-26 10:19 | 55.46869 | 89.73155 | 35068 ft | 467 kts | 84° |
| 2026-04-26 10:19 | 55.47324 | 89.84509 | 35071 ft | 467 kts | 84° |
| 2026-04-26 10:20 | 55.47697 | 89.94003 | 35073 ft | 467 kts | 84° |
| 2026-04-26 10:20 | 55.48206 | 90.07225 | 35070 ft | 468 kts | 84° |
| 2026-04-26 10:21 | 55.48632 | 90.18597 | 35074 ft | 467 kts | 84° |
| 2026-04-26 10:21 | 55.49048 | 90.30011 | 35075 ft | 466 kts | 84° |
| 2026-04-26 10:22 | 55.49453 | 90.41348 | 35082 ft | 467 kts | 84° |
| 2026-04-26 10:22 | 55.49850 | 90.52797 | 35092 ft | 467 kts | 84° |
| 2026-04-26 10:23 | 55.50233 | 90.64167 | 35099 ft | 466 kts | 84° |
| 2026-04-26 10:23 | 55.50603 | 90.75474 | 35106 ft | 466 kts | 85° |
| 2026-04-26 10:24 | 55.50965 | 90.86887 | 35109 ft | 466 kts | 84° |
| 2026-04-26 10:24 | 55.51315 | 90.98251 | 35114 ft | 466 kts | 84° |
| 2026-04-26 10:25 | 55.51587 | 91.09577 | 35114 ft | 467 kts | 88° |
| 2026-04-26 10:25 | 55.51245 | 91.21021 | 35118 ft | 468 kts | 93° |
| 2026-04-26 10:26 | 55.50626 | 91.32382 | 35120 ft | 469 kts | 93° |
| 2026-04-26 10:26 | 55.49993 | 91.43797 | 35123 ft | 469 kts | 93° |
| 2026-04-26 10:27 | 55.49359 | 91.55212 | 35123 ft | 469 kts | 93° |
| 2026-04-26 10:27 | 55.48718 | 91.66625 | 35126 ft | 469 kts | 94° |
| 2026-04-26 10:28 | 55.48071 | 91.78017 | 35130 ft | 469 kts | 94° |
| 2026-04-26 10:28 | 55.47414 | 91.89340 | 35132 ft | 469 kts | 94° |
| 2026-04-26 10:29 | 55.46742 | 92.00732 | 35133 ft | 469 kts | 94° |
| 2026-04-26 10:29 | 55.46058 | 92.12161 | 35134 ft | 470 kts | 94° |
| 2026-04-26 10:30 | 55.45366 | 92.23531 | 35134 ft | 470 kts | 94° |
| 2026-04-26 10:30 | 55.44662 | 92.34952 | 35141 ft | 470 kts | 94° |
| 2026-04-26 10:31 | 55.43944 | 92.46376 | 35147 ft | 470 kts | 94° |
| 2026-04-26 10:31 | 55.43226 | 92.57723 | 35153 ft | 470 kts | 94° |
| 2026-04-26 10:32 | 55.42505 | 92.69102 | 35155 ft | 470 kts | 95° |
| 2026-04-26 10:32 | 55.41772 | 92.80497 | 35159 ft | 471 kts | 95° |
| 2026-04-26 10:33 | 55.41025 | 92.91901 | 35164 ft | 470 kts | 95° |
| 2026-04-26 10:33 | 55.40265 | 93.03336 | 35168 ft | 471 kts | 95° |
| 2026-04-26 10:34 | 55.39499 | 93.14712 | 35173 ft | 471 kts | 95° |
| 2026-04-26 10:34 | 55.38723 | 93.26068 | 35176 ft | 471 kts | 95° |
| 2026-04-26 10:35 | 55.37937 | 93.37431 | 35181 ft | 471 kts | 95° |
| 2026-04-26 10:35 | 55.37136 | 93.48817 | 35180 ft | 471 kts | 95° |
| 2026-04-26 10:36 | 55.36330 | 93.60143 | 35186 ft | 470 kts | 95° |
| 2026-04-26 10:36 | 55.35509 | 93.71521 | 35189 ft | 470 kts | 95° |
| 2026-04-26 10:37 | 55.34685 | 93.82806 | 35189 ft | 470 kts | 95° |
| 2026-04-26 10:37 | 55.33847 | 93.94132 | 35194 ft | 470 kts | 95° |
| 2026-04-26 10:38 | 55.32996 | 94.05494 | 35192 ft | 470 kts | 95° |
| 2026-04-26 10:38 | 55.32137 | 94.16785 | 35185 ft | 469 kts | 95° |
| 2026-04-26 10:39 | 55.31269 | 94.28071 | 35184 ft | 469 kts | 95° |
| 2026-04-26 10:39 | 55.30386 | 94.39402 | 35185 ft | 470 kts | 95° |
| 2026-04-26 10:40 | 55.29494 | 94.50714 | 35182 ft | 470 kts | 95° |
| 2026-04-26 10:40 | 55.28590 | 94.62045 | 35185 ft | 471 kts | 95° |
| 2026-04-26 10:41 | 55.27679 | 94.73356 | 35181 ft | 470 kts | 95° |
| 2026-04-26 10:41 | 55.26751 | 94.84693 | 35183 ft | 471 kts | 95° |
| 2026-04-26 10:42 | 55.25897 | 94.95944 | 35176 ft | 471 kts | 94° |
| 2026-04-26 10:42 | 55.25116 | 95.07312 | 35186 ft | 471 kts | 93° |
| 2026-04-26 10:43 | 55.24320 | 95.18707 | 35184 ft | 471 kts | 94° |
| 2026-04-26 10:43 | 55.23508 | 95.30029 | 35189 ft | 471 kts | 94° |
| 2026-04-26 10:44 | 55.22683 | 95.41344 | 35193 ft | 471 kts | 94° |
| 2026-04-26 10:44 | 55.21840 | 95.52724 | 35203 ft | 471 kts | 94° |
| 2026-04-26 10:45 | 55.20994 | 95.64013 | 35202 ft | 471 kts | 94° |
| 2026-04-26 10:45 | 55.20135 | 95.75331 | 35206 ft | 471 kts | 94° |
| 2026-04-26 10:46 | 55.19265 | 95.86668 | 35207 ft | 472 kts | 94° |
| 2026-04-26 10:46 | 55.18387 | 95.97945 | 35211 ft | 472 kts | 94° |
| 2026-04-26 10:47 | 55.17489 | 96.09329 | 35211 ft | 472 kts | 94° |
| 2026-04-26 10:47 | 55.16591 | 96.20579 | 35210 ft | 472 kts | 94° |
| 2026-04-26 10:48 | 55.15673 | 96.31945 | 35210 ft | 471 kts | 94° |
| 2026-04-26 10:48 | 55.14756 | 96.43176 | 35212 ft | 472 kts | 94° |
| 2026-04-26 10:49 | 55.13822 | 96.54478 | 35210 ft | 471 kts | 94° |
| 2026-04-26 10:49 | 55.12872 | 96.65824 | 35209 ft | 472 kts | 94° |
| 2026-04-26 10:50 | 55.12082 | 96.75186 | 35209 ft | 472 kts | 94° |
| 2026-04-26 10:50 | 55.10960 | 96.88332 | 35211 ft | 471 kts | 94° |
| 2026-04-26 10:51 | 55.09488 | 97.05243 | 35217 ft | 471 kts | 94° |
| 2026-04-26 10:52 | 55.08475 | 97.16503 | 35226 ft | 471 kts | 94° |
| 2026-04-26 10:52 | 55.07413 | 97.27696 | 35230 ft | 471 kts | 94° |
| 2026-04-26 10:53 | 55.06332 | 97.38922 | 35234 ft | 471 kts | 94° |
| 2026-04-26 10:53 | 55.05247 | 97.50133 | 35240 ft | 470 kts | 94° |
| 2026-04-26 10:54 | 55.03599 | 97.66949 | 35241 ft | 470 kts | 95° |
| 2026-04-26 10:54 | 55.02492 | 97.78138 | 35247 ft | 471 kts | 94° |
| 2026-04-26 10:55 | 55.01376 | 97.89293 | 35252 ft | 470 kts | 95° |
| 2026-04-26 10:55 | 55.00250 | 98.00433 | 35257 ft | 470 kts | 94° |
| 2026-04-26 10:56 | 54.99113 | 98.11574 | 35264 ft | 470 kts | 94° |
| 2026-04-26 10:56 | 54.97958 | 98.22775 | 35258 ft | 470 kts | 94° |
| 2026-04-26 10:57 | 54.96804 | 98.33896 | 35255 ft | 470 kts | 94° |
| 2026-04-26 10:57 | 54.95642 | 98.44977 | 35246 ft | 470 kts | 94° |
| 2026-04-26 10:58 | 54.94455 | 98.56155 | 35246 ft | 470 kts | 94° |
| 2026-04-26 10:58 | 54.93268 | 98.67246 | 35246 ft | 470 kts | 95° |
| 2026-04-26 10:59 | 54.92067 | 98.78386 | 35254 ft | 471 kts | 95° |
| 2026-04-26 10:59 | 54.90850 | 98.89532 | 35253 ft | 472 kts | 94° |
| 2026-04-26 11:00 | 54.89482 | 99.00637 | 35253 ft | 476 kts | 99° |
| 2026-04-26 11:00 | 54.87358 | 99.11510 | 35248 ft | 481 kts | 107° |
| 2026-04-26 11:01 | 54.84507 | 99.22002 | 35255 ft | 483 kts | 111° |
| 2026-04-26 11:01 | 54.81511 | 99.32347 | 35263 ft | 482 kts | 111° |
| 2026-04-26 11:02 | 54.78513 | 99.42728 | 35265 ft | 481 kts | 111° |
| 2026-04-26 11:02 | 54.75535 | 99.53032 | 35267 ft | 481 kts | 111° |
| 2026-04-26 11:03 | 54.72551 | 99.63338 | 35270 ft | 481 kts | 111° |
| 2026-04-26 11:03 | 54.69563 | 99.73618 | 35276 ft | 481 kts | 111° |
| 2026-04-26 11:04 | 54.66553 | 99.83935 | 35220 ft | 482 kts | 111° |
| 2026-04-26 11:04 | 54.65058 | 99.89033 | 35053 ft | 480 kts | 111° |
| 2026-04-26 11:04 | 54.63556 | 99.94141 | 34872 ft | 478 kts | 111° |
| 2026-04-26 11:05 | 54.62056 | 99.99235 | 34683 ft | 475 kts | 111° |
| 2026-04-26 11:05 | 54.60571 | 100.04263 | 34497 ft | 472 kts | 111° |
| 2026-04-26 11:05 | 54.59088 | 100.09277 | 34310 ft | 470 kts | 111° |
| 2026-04-26 11:05 | 54.57611 | 100.14261 | 34129 ft | 468 kts | 111° |
| 2026-04-26 11:06 | 54.56131 | 100.19249 | 33942 ft | 467 kts | 111° |
| 2026-04-26 11:06 | 54.54656 | 100.24206 | 33746 ft | 467 kts | 110° |
| 2026-04-26 11:06 | 54.53182 | 100.29150 | 33565 ft | 466 kts | 110° |
| 2026-04-26 11:06 | 54.51707 | 100.34084 | 33382 ft | 466 kts | 110° |
| 2026-04-26 11:07 | 54.50246 | 100.38966 | 33199 ft | 466 kts | 110° |
| 2026-04-26 11:07 | 54.48755 | 100.43936 | 33013 ft | 466 kts | 110° |
| 2026-04-26 11:07 | 54.47277 | 100.48846 | 32832 ft | 466 kts | 110° |
| 2026-04-26 11:07 | 54.45782 | 100.53805 | 32652 ft | 465 kts | 110° |
| 2026-04-26 11:08 | 54.44314 | 100.58665 | 32468 ft | 465 kts | 110° |
| 2026-04-26 11:08 | 54.42824 | 100.63589 | 32289 ft | 465 kts | 110° |
| 2026-04-26 11:08 | 54.41348 | 100.68467 | 32106 ft | 465 kts | 111° |
| 2026-04-26 11:08 | 54.39854 | 100.73394 | 31925 ft | 464 kts | 110° |
| 2026-04-26 11:09 | 54.38363 | 100.78301 | 31746 ft | 464 kts | 110° |
| 2026-04-26 11:09 | 54.36874 | 100.83190 | 31565 ft | 465 kts | 110° |
| 2026-04-26 11:09 | 54.35394 | 100.88028 | 31388 ft | 464 kts | 110° |
| 2026-04-26 11:09 | 54.33888 | 100.92942 | 31207 ft | 464 kts | 110° |
| 2026-04-26 11:10 | 54.32402 | 100.97788 | 31030 ft | 463 kts | 110° |
| 2026-04-26 11:10 | 54.30898 | 101.02679 | 30844 ft | 463 kts | 110° |
| 2026-04-26 11:10 | 54.29399 | 101.07549 | 30659 ft | 465 kts | 110° |
| 2026-04-26 11:10 | 54.27906 | 101.12386 | 30473 ft | 465 kts | 110° |
| 2026-04-26 11:11 | 54.26383 | 101.17306 | 30282 ft | 467 kts | 110° |
| 2026-04-26 11:11 | 54.24883 | 101.22144 | 30096 ft | 466 kts | 110° |
| 2026-04-26 11:11 | 54.23372 | 101.27009 | 29915 ft | 467 kts | 110° |
| 2026-04-26 11:11 | 54.21852 | 101.31885 | 29724 ft | 467 kts | 110° |
| 2026-04-26 11:12 | 54.20319 | 101.36797 | 29536 ft | 468 kts | 110° |
| 2026-04-26 11:12 | 54.18808 | 101.41630 | 29348 ft | 466 kts | 110° |
| 2026-04-26 11:12 | 54.17285 | 101.46489 | 29169 ft | 466 kts | 110° |
| 2026-04-26 11:12 | 54.15760 | 101.51341 | 28978 ft | 464 kts | 110° |
| 2026-04-26 11:13 | 54.14238 | 101.56181 | 28797 ft | 463 kts | 110° |
| 2026-04-26 11:13 | 54.12719 | 101.61000 | 28609 ft | 462 kts | 110° |
| 2026-04-26 11:13 | 54.11211 | 101.65775 | 28425 ft | 461 kts | 111° |
| 2026-04-26 11:13 | 54.09684 | 101.70614 | 28236 ft | 462 kts | 110° |
| 2026-04-26 11:14 | 54.08188 | 101.75349 | 28049 ft | 461 kts | 111° |
| 2026-04-26 11:14 | 54.06665 | 101.80142 | 27866 ft | 459 kts | 111° |
| 2026-04-26 11:14 | 54.05149 | 101.84907 | 27681 ft | 459 kts | 111° |
| 2026-04-26 11:14 | 54.03645 | 101.89622 | 27502 ft | 459 kts | 111° |
| 2026-04-26 11:15 | 54.02122 | 101.94385 | 27313 ft | 457 kts | 111° |
| 2026-04-26 11:15 | 54.00618 | 101.99088 | 27125 ft | 455 kts | 110° |
| 2026-04-26 11:15 | 53.99108 | 102.03816 | 26937 ft | 454 kts | 111° |
| 2026-04-26 11:15 | 53.97611 | 102.08501 | 26757 ft | 452 kts | 110° |
| 2026-04-26 11:16 | 53.96124 | 102.13142 | 26571 ft | 452 kts | 110° |
| 2026-04-26 11:16 | 53.94614 | 102.17845 | 26383 ft | 451 kts | 110° |
| 2026-04-26 11:16 | 53.93133 | 102.22449 | 26202 ft | 450 kts | 111° |
| 2026-04-26 11:16 | 53.91627 | 102.27122 | 26020 ft | 449 kts | 110° |
| 2026-04-26 11:17 | 53.90140 | 102.31722 | 25829 ft | 447 kts | 110° |
| 2026-04-26 11:17 | 53.88640 | 102.36332 | 25639 ft | 446 kts | 111° |
| 2026-04-26 11:17 | 53.87146 | 102.40893 | 25455 ft | 444 kts | 111° |
| 2026-04-26 11:17 | 53.85665 | 102.45424 | 25272 ft | 444 kts | 111° |
| 2026-04-26 11:18 | 53.84169 | 102.50005 | 25079 ft | 442 kts | 111° |
| 2026-04-26 11:18 | 53.82690 | 102.54543 | 24897 ft | 441 kts | 110° |
| 2026-04-26 11:18 | 53.81230 | 102.59011 | 24713 ft | 440 kts | 110° |
| 2026-04-26 11:18 | 53.79739 | 102.63572 | 24526 ft | 439 kts | 111° |
| 2026-04-26 11:19 | 53.78268 | 102.68051 | 24343 ft | 438 kts | 111° |
| 2026-04-26 11:19 | 53.76795 | 102.72536 | 24162 ft | 437 kts | 111° |
| 2026-04-26 11:19 | 53.75324 | 102.77005 | 23975 ft | 437 kts | 111° |
| 2026-04-26 11:19 | 53.73851 | 102.81475 | 23788 ft | 436 kts | 111° |
| 2026-04-26 11:20 | 53.72385 | 102.85908 | 23610 ft | 434 kts | 111° |
| 2026-04-26 11:20 | 53.71423 | 102.88814 | 23488 ft | 434 kts | 111° |
| 2026-04-26 11:20 | 53.69466 | 102.94714 | 23247 ft | 432 kts | 111° |
| 2026-04-26 11:20 | 53.68002 | 102.99126 | 23071 ft | 430 kts | 112° |
| 2026-04-26 11:21 | 53.66536 | 103.03530 | 22883 ft | 428 kts | 111° |
| 2026-04-26 11:21 | 53.65086 | 103.07884 | 22700 ft | 427 kts | 112° |
| 2026-04-26 11:21 | 53.63646 | 103.12199 | 22517 ft | 426 kts | 111° |
| 2026-04-26 11:21 | 53.62206 | 103.16506 | 22339 ft | 425 kts | 112° |
| 2026-04-26 11:22 | 53.60757 | 103.20831 | 22152 ft | 423 kts | 111° |
| 2026-04-26 11:22 | 53.59318 | 103.25122 | 21976 ft | 422 kts | 112° |
| 2026-04-26 11:22 | 53.57884 | 103.29390 | 21795 ft | 421 kts | 112° |
| 2026-04-26 11:22 | 53.56453 | 103.33639 | 21613 ft | 419 kts | 112° |
| 2026-04-26 11:23 | 53.55018 | 103.37900 | 21434 ft | 418 kts | 112° |
| 2026-04-26 11:23 | 53.53588 | 103.42129 | 21262 ft | 416 kts | 112° |
| 2026-04-26 11:23 | 53.52163 | 103.46337 | 21084 ft | 415 kts | 112° |
| 2026-04-26 11:23 | 53.50737 | 103.50542 | 20895 ft | 414 kts | 112° |
| 2026-04-26 11:24 | 53.49324 | 103.54698 | 20719 ft | 413 kts | 112° |
| 2026-04-26 11:24 | 53.47913 | 103.58844 | 20535 ft | 412 kts | 112° |
| 2026-04-26 11:24 | 53.46500 | 103.62994 | 20355 ft | 411 kts | 112° |
| 2026-04-26 11:24 | 53.45088 | 103.67137 | 20176 ft | 409 kts | 113° |
| 2026-04-26 11:25 | 53.43679 | 103.71275 | 19999 ft | 409 kts | 113° |
| 2026-04-26 11:25 | 53.42273 | 103.75394 | 19822 ft | 408 kts | 113° |
| 2026-04-26 11:25 | 53.40864 | 103.79504 | 19639 ft | 407 kts | 113° |
| 2026-04-26 11:25 | 53.39468 | 103.83566 | 19467 ft | 405 kts | 113° |
| 2026-04-26 11:26 | 53.38073 | 103.87659 | 19278 ft | 403 kts | 112° |
| 2026-04-26 11:26 | 53.36769 | 103.91753 | 19105 ft | 401 kts | 111° |
| 2026-04-26 11:26 | 53.35473 | 103.95872 | 18921 ft | 399 kts | 111° |
| 2026-04-26 11:26 | 53.34176 | 104.00000 | 18754 ft | 398 kts | 111° |
| 2026-04-26 11:27 | 53.32908 | 104.04033 | 18586 ft | 396 kts | 111° |
| 2026-04-26 11:27 | 53.31620 | 104.08119 | 18398 ft | 395 kts | 111° |
| 2026-04-26 11:27 | 53.30347 | 104.12153 | 18224 ft | 394 kts | 111° |
| 2026-04-26 11:27 | 53.29073 | 104.16177 | 18053 ft | 393 kts | 111° |
| 2026-04-26 11:28 | 53.27802 | 104.20179 | 17877 ft | 392 kts | 111° |
| 2026-04-26 11:28 | 53.26527 | 104.24194 | 17697 ft | 391 kts | 111° |
| 2026-04-26 11:28 | 53.25253 | 104.28197 | 17523 ft | 391 kts | 111° |
| 2026-04-26 11:28 | 53.23984 | 104.32176 | 17342 ft | 390 kts | 111° |
| 2026-04-26 11:29 | 53.22712 | 104.36158 | 17167 ft | 389 kts | 111° |
| 2026-04-26 11:29 | 53.21441 | 104.40131 | 16987 ft | 388 kts | 112° |
| 2026-04-26 11:29 | 53.20186 | 104.44051 | 16817 ft | 387 kts | 112° |
| 2026-04-26 11:29 | 53.18907 | 104.48037 | 16639 ft | 386 kts | 112° |
| 2026-04-26 11:30 | 53.17654 | 104.51929 | 16463 ft | 385 kts | 112° |
| 2026-04-26 11:30 | 53.16803 | 104.54569 | 16341 ft | 384 kts | 112° |
| 2026-04-26 11:30 | 53.15147 | 104.59697 | 16101 ft | 373 kts | 112° |
| 2026-04-26 11:30 | 53.13961 | 104.63467 | 15919 ft | 361 kts | 111° |
| 2026-04-26 11:31 | 53.12843 | 104.67123 | 15728 ft | 351 kts | 111° |
| 2026-04-26 11:31 | 53.11767 | 104.70676 | 15548 ft | 342 kts | 111° |
| 2026-04-26 11:31 | 53.10715 | 104.74140 | 15368 ft | 333 kts | 111° |
| 2026-04-26 11:31 | 53.09666 | 104.77583 | 15187 ft | 331 kts | 111° |
| 2026-04-26 11:32 | 53.08635 | 104.80961 | 15005 ft | 331 kts | 111° |
| 2026-04-26 11:32 | 53.07589 | 104.84370 | 14825 ft | 330 kts | 111° |
| 2026-04-26 11:32 | 53.06550 | 104.87744 | 14651 ft | 330 kts | 111° |
| 2026-04-26 11:32 | 53.05512 | 104.91104 | 14475 ft | 329 kts | 111° |
| 2026-04-26 11:33 | 53.04462 | 104.94503 | 14295 ft | 328 kts | 111° |
| 2026-04-26 11:33 | 53.03427 | 104.97844 | 14113 ft | 327 kts | 111° |
| 2026-04-26 11:33 | 53.02393 | 105.01174 | 13940 ft | 326 kts | 111° |
| 2026-04-26 11:33 | 53.01358 | 105.04502 | 13758 ft | 325 kts | 111° |
| 2026-04-26 11:34 | 53.00320 | 105.07835 | 13584 ft | 324 kts | 111° |
| 2026-04-26 11:34 | 52.99291 | 105.11138 | 13407 ft | 322 kts | 111° |
| 2026-04-26 11:34 | 52.98259 | 105.14397 | 13226 ft | 321 kts | 113° |
| 2026-04-26 11:34 | 52.97153 | 105.17615 | 13051 ft | 321 kts | 115° |
| 2026-04-26 11:35 | 52.95966 | 105.20750 | 12869 ft | 321 kts | 118° |
| 2026-04-26 11:35 | 52.94714 | 105.23759 | 12695 ft | 322 kts | 121° |
| 2026-04-26 11:35 | 52.93357 | 105.26732 | 12514 ft | 322 kts | 124° |
| 2026-04-26 11:35 | 52.92425 | 105.28630 | 12399 ft | 322 kts | 126° |
| 2026-04-26 11:36 | 52.90489 | 105.32400 | 12157 ft | 320 kts | 126° |
| 2026-04-26 11:36 | 52.89057 | 105.35186 | 11990 ft | 319 kts | 126° |
| 2026-04-26 11:36 | 52.87644 | 105.37917 | 11835 ft | 310 kts | 126° |
| 2026-04-26 11:36 | 52.86260 | 105.40592 | 11675 ft | 300 kts | 126° |
| 2026-04-26 11:37 | 52.84926 | 105.43178 | 11531 ft | 289 kts | 126° |
| 2026-04-26 11:37 | 52.83663 | 105.45634 | 11398 ft | 280 kts | 125° |
| 2026-04-26 11:37 | 52.82409 | 105.48080 | 11268 ft | 279 kts | 125° |
| 2026-04-26 11:37 | 52.81156 | 105.50530 | 11141 ft | 279 kts | 125° |
| 2026-04-26 11:38 | 52.79914 | 105.52959 | 11012 ft | 278 kts | 125° |
| 2026-04-26 11:38 | 52.78658 | 105.55406 | 10881 ft | 277 kts | 125° |
| 2026-04-26 11:38 | 52.77414 | 105.57828 | 10753 ft | 276 kts | 125° |
| 2026-04-26 11:38 | 52.76178 | 105.60233 | 10620 ft | 276 kts | 125° |
| 2026-04-26 11:39 | 52.74933 | 105.62653 | 10486 ft | 275 kts | 125° |
| 2026-04-26 11:39 | 52.73708 | 105.65033 | 10361 ft | 275 kts | 126° |
| 2026-04-26 11:39 | 52.72474 | 105.67432 | 10227 ft | 273 kts | 126° |
| 2026-04-26 11:39 | 52.71244 | 105.69830 | 10101 ft | 272 kts | 126° |
| 2026-04-26 11:40 | 52.70022 | 105.72200 | 9970 ft | 271 kts | 126° |
| 2026-04-26 11:40 | 52.68808 | 105.74553 | 9839 ft | 270 kts | 126° |
| 2026-04-26 11:40 | 52.67605 | 105.76877 | 9712 ft | 269 kts | 126° |
| 2026-04-26 11:40 | 52.66394 | 105.79217 | 9589 ft | 268 kts | 126° |
| 2026-04-26 11:41 | 52.65180 | 105.81556 | 9461 ft | 268 kts | 127° |
| 2026-04-26 11:42 | 52.56833 | 105.97585 | 8607 ft | 261 kts | 127° |
| 2026-04-26 11:43 | 52.55661 | 105.99829 | 8484 ft | 260 kts | 127° |
| 2026-04-26 11:43 | 52.54480 | 106.02086 | 8355 ft | 259 kts | 127° |
| 2026-04-26 11:43 | 52.53309 | 106.04324 | 8226 ft | 259 kts | 127° |
| 2026-04-26 11:43 | 52.52134 | 106.06565 | 8101 ft | 257 kts | 127° |
| 2026-04-26 11:44 | 52.50975 | 106.08775 | 7973 ft | 256 kts | 127° |
| 2026-04-26 11:44 | 52.49818 | 106.10980 | 7844 ft | 256 kts | 127° |
| 2026-04-26 11:44 | 52.48661 | 106.13183 | 7715 ft | 255 kts | 127° |
| 2026-04-26 11:44 | 52.47509 | 106.15375 | 7585 ft | 255 kts | 127° |
| 2026-04-26 11:45 | 52.46354 | 106.17570 | 7455 ft | 254 kts | 127° |
| 2026-04-26 11:45 | 52.45322 | 106.19529 | 7341 ft | 253 kts | 127° |
| 2026-04-26 11:45 | 52.44181 | 106.21693 | 7212 ft | 252 kts | 127° |
| 2026-04-26 11:45 | 52.43028 | 106.23878 | 7083 ft | 251 kts | 127° |
| 2026-04-26 11:46 | 52.41900 | 106.26014 | 6957 ft | 250 kts | 127° |
| 2026-04-26 11:46 | 52.40759 | 106.28171 | 6826 ft | 250 kts | 127° |
| 2026-04-26 11:46 | 52.39628 | 106.30312 | 6697 ft | 249 kts | 127° |
| 2026-04-26 11:46 | 52.38503 | 106.32434 | 6568 ft | 248 kts | 127° |
| 2026-04-26 11:47 | 52.37367 | 106.34578 | 6438 ft | 247 kts | 127° |
| 2026-04-26 11:47 | 52.36253 | 106.36680 | 6308 ft | 247 kts | 127° |
| 2026-04-26 11:47 | 52.35126 | 106.38802 | 6182 ft | 245 kts | 127° |
| 2026-04-26 11:47 | 52.34011 | 106.40899 | 6055 ft | 244 kts | 127° |
| 2026-04-26 11:48 | 52.32904 | 106.42980 | 5925 ft | 244 kts | 127° |
| 2026-04-26 11:48 | 52.31786 | 106.45081 | 5795 ft | 244 kts | 127° |
| 2026-04-26 11:48 | 52.30681 | 106.47158 | 5666 ft | 244 kts | 127° |
| 2026-04-26 11:48 | 52.29573 | 106.49256 | 5536 ft | 243 kts | 126° |
| 2026-04-26 11:49 | 52.28495 | 106.51387 | 5407 ft | 242 kts | 126° |
| 2026-04-26 11:49 | 52.27438 | 106.53498 | 5280 ft | 241 kts | 125° |
| 2026-04-26 11:49 | 52.26377 | 106.55617 | 5150 ft | 241 kts | 125° |
| 2026-04-26 11:49 | 52.25317 | 106.57728 | 5021 ft | 240 kts | 126° |
| 2026-04-26 11:50 | 52.24268 | 106.59811 | 4891 ft | 239 kts | 126° |
| 2026-04-26 11:50 | 52.23206 | 106.61917 | 4759 ft | 239 kts | 126° |
| 2026-04-26 11:50 | 52.22158 | 106.63993 | 4633 ft | 238 kts | 126° |
| 2026-04-26 11:50 | 52.21107 | 106.66074 | 4503 ft | 237 kts | 127° |
| 2026-04-26 11:51 | 52.20072 | 106.68128 | 4376 ft | 237 kts | 127° |
| 2026-04-26 11:51 | 52.19027 | 106.70201 | 4246 ft | 237 kts | 127° |
| 2026-04-26 11:51 | 52.17979 | 106.72272 | 4116 ft | 237 kts | 127° |
| 2026-04-26 11:51 | 52.16926 | 106.74350 | 3986 ft | 236 kts | 127° |
| 2026-04-26 11:52 | 52.15881 | 106.76406 | 3856 ft | 236 kts | 127° |
| 2026-04-26 11:52 | 52.15194 | 106.77756 | 3770 ft | 235 kts | 127° |
| 2026-04-26 11:52 | 52.13810 | 106.80473 | 3598 ft | 234 kts | 128° |
| 2026-04-26 11:52 | 52.12760 | 106.82534 | 3465 ft | 232 kts | 127° |
| 2026-04-26 11:53 | 52.11752 | 106.84510 | 3314 ft | 223 kts | 128° |
| 2026-04-26 11:53 | 52.10785 | 106.86404 | 3174 ft | 214 kts | 128° |
| 2026-04-26 11:53 | 52.09856 | 106.88198 | 3029 ft | 205 kts | 128° |
| 2026-04-26 11:54 | 52.08087 | 106.91585 | 2748 ft | 188 kts | 128° |
| 2026-04-26 11:54 | 52.07240 | 106.93208 | 2744 ft | 189 kts | 128° |
| 2026-04-26 11:54 | 52.06399 | 106.94820 | 3018 ft | 189 kts | 128° |
| 2026-04-26 11:54 | 52.05542 | 106.96464 | 3340 ft | 193 kts | 128° |
| 2026-04-26 11:55 | 52.04672 | 106.98104 | 3388 ft | 194 kts | 131° |
| 2026-04-26 11:55 | 52.03591 | 106.99424 | 3397 ft | 195 kts | 151° |
| 2026-04-26 11:55 | 52.02313 | 107.00098 | 3403 ft | 195 kts | 171° |
| 2026-04-26 11:55 | 52.00956 | 107.00126 | 3418 ft | 195 kts | 184° |
| 2026-04-26 11:56 | 51.99593 | 106.99926 | 3477 ft | 200 kts | 186° |
| 2026-04-26 11:56 | 51.98199 | 106.99693 | 3982 ft | 202 kts | 186° |
| 2026-04-26 11:56 | 51.96824 | 106.99474 | 4565 ft | 201 kts | 185° |
| 2026-04-26 11:56 | 51.95440 | 106.99272 | 5069 ft | 204 kts | 185° |
| 2026-04-26 11:57 | 51.94019 | 106.99078 | 5570 ft | 207 kts | 185° |
| 2026-04-26 11:57 | 51.92574 | 106.98888 | 6056 ft | 210 kts | 184° |
| 2026-04-26 11:57 | 51.91118 | 106.98701 | 6486 ft | 213 kts | 184° |
| 2026-04-26 11:57 | 51.89620 | 106.98509 | 6952 ft | 216 kts | 184° |
| 2026-04-26 11:58 | 51.88120 | 106.98323 | 7191 ft | 217 kts | 184° |
| 2026-04-26 11:58 | 51.86670 | 106.98148 | 7185 ft | 200 kts | 181° |
| 2026-04-26 11:58 | 51.85379 | 106.98480 | 7132 ft | 183 kts | 153° |
| 2026-04-26 11:58 | 51.84368 | 106.99611 | 7155 ft | 172 kts | 125° |
| 2026-04-26 11:59 | 51.83667 | 107.01139 | 7188 ft | 169 kts | 116° |
| 2026-04-26 11:59 | 51.83043 | 107.02727 | 7148 ft | 165 kts | 115° |
| 2026-04-26 11:59 | 51.82436 | 107.04272 | 6818 ft | 162 kts | 116° |
| 2026-04-26 11:59 | 51.81822 | 107.05798 | 6332 ft | 162 kts | 116° |
| 2026-04-26 12:00 | 51.81201 | 107.07305 | 6090 ft | 163 kts | 117° |
| 2026-04-26 12:00 | 51.80567 | 107.08820 | 5832 ft | 163 kts | 117° |
| 2026-04-26 12:00 | 51.79929 | 107.10335 | 5550 ft | 165 kts | 117° |
| 2026-04-26 12:00 | 51.79285 | 107.11857 | 5323 ft | 163 kts | 118° |
| 2026-04-26 12:01 | 51.78648 | 107.13361 | 5063 ft | 162 kts | 118° |
| 2026-04-26 12:01 | 51.78020 | 107.14847 | 4785 ft | 161 kts | 118° |
| 2026-04-26 12:01 | 51.77440 | 107.16364 | 4439 ft | 156 kts | 104° |
| 2026-04-26 12:01 | 51.77447 | 107.17979 | 4116 ft | 144 kts | 68° |
| 2026-04-26 12:02 | 51.77726 | 107.19542 | 3878 ft | 147 kts | 69° |
| 2026-04-26 12:02 | 51.77984 | 107.21133 | 3577 ft | 145 kts | 71° |
| 2026-04-26 12:02 | 51.78209 | 107.22691 | 3147 ft | 144 kts | 72° |
| 2026-04-26 12:02 | 51.78428 | 107.24308 | 3010 ft | 147 kts | 73° |
| 2026-04-26 12:03 | 51.78637 | 107.25926 | 3029 ft | 149 kts | 73° |
| 2026-04-26 12:03 | 51.78847 | 107.27571 | 3021 ft | 149 kts | 73° |
| 2026-04-26 12:03 | 51.79056 | 107.29204 | 3018 ft | 149 kts | 74° |
| 2026-04-26 12:03 | 51.79265 | 107.30845 | 3017 ft | 150 kts | 73° |
| 2026-04-26 12:04 | 51.79480 | 107.32511 | 2832 ft | 149 kts | 74° |
| 2026-04-26 12:04 | 51.79689 | 107.34132 | 2642 ft | 149 kts | 74° |
| 2026-04-26 12:04 | 51.79900 | 107.35765 | 2451 ft | 148 kts | 74° |
| 2026-04-26 12:04 | 51.80110 | 107.37386 | 2253 ft | 147 kts | 74° |
| 2026-04-26 12:05 | 51.80320 | 107.39003 | 2053 ft | 147 kts | 74° |
| 2026-04-26 12:05 | 51.80529 | 107.40612 | 1870 ft | 146 kts | 75° |
| 2026-04-26 12:05 | 51.80732 | 107.42179 | 1697 ft | 135 kts | 75° |
| 2026-04-26 12:05 | 51.80892 | 107.43356 | 1696 ft | 74 kts | 77° |
| 2026-04-26 12:06 | 51.80954 | 107.43884 | 1696 ft | 35 kts | 83° |
| 2026-04-26 12:06 | 51.80981 | 107.44135 | 1696 ft | 16 kts | 93° |
| 2026-04-26 12:06 | 51.80903 | 107.44245 | 1696 ft | 16 kts | 166° |
| 2026-04-26 12:06 | 51.80792 | 107.44282 | 1696 ft | 16 kts | 173° |
| 2026-04-26 12:07 | 51.80688 | 107.44312 | 1696 ft | 12 kts | 169° |
| 2026-04-26 12:07 | 51.80607 | 107.44312 | 1696 ft | 10 kts | 168° |
| 2026-04-26 12:07 | 51.80576 | 107.44322 | 1696 ft | 0 kts | 167° |